Flight Track Log - Related Links

Times and Time Zones

All times are in EDT time to prevent confusion due to time zone crossing. See the JZA7799 flight status page for this flight to view local times or setup timezone preferences in your user account.

Time Position Orientation Groundspeed Altitude Reporting Facility
EDT Latitude Longitude Course Direction KTS MPH feet Rate Location/Type
Fri 10:56:33 PM 43.6500 -79.6167 360° North 10 12 600  Level Toronto Center
Fri 10:58:33 PM 43.6500 -79.6167 90° East 10 12 600  Level Toronto Center
Fri 11:03:02 PM 43.6500 -79.5833 90° East 40 46 600 274 Level Toronto Center
Fri 11:04:02 PM 43.6833 -79.6167 324° Northwest 140 161 2,100 1,350 Climbing Toronto Center
Fri 11:05:02 PM 43.7167 -79.6500 324° Northwest 180 207 3,300 1,300 Climbing Toronto Center
Fri 11:06:02 PM 43.7500 -79.7000 313° West 170 196 4,700 850 Climbing Toronto Center
Fri 11:07:02 PM 43.7667 -79.7667 289° West 190 219 5,000 200 Climbing Toronto Center
Fri 11:08:02 PM 43.8000 -79.8333 305° West 230 265 5,100 750 Climbing Toronto Center
Fri 11:09:02 PM 43.8333 -79.9333 295° West 220 253 6,500 1,250 Climbing Toronto Center
Fri 11:10:02 PM 43.8500 -80.0000 289° West 200 230 7,600 750 Climbing Toronto Center
Fri 11:11:02 PM 43.8833 -80.0500 313° West 200 230 8,000 200 Climbing Toronto Center
Fri 11:12:02 PM 43.9333 -80.1500 305° West 230 265 8,000 150 Level Toronto Center
Fri 11:13:02 PM 43.9667 -80.2167 305° West 250 288 8,300 700 Climbing Toronto Center
Fri 11:14:02 PM 44.0167 -80.2667 324° Northwest 230 265 9,400 1,000 Climbing Toronto Center
Fri 11:15:02 PM 44.0500 -80.3333 305° West 220 253 10,300 950 Climbing Toronto Center
Fri 11:16:02 PM 44.1000 -80.4000 316° Northwest 210 242 11,300 1,050 Climbing Toronto Center
Fri 11:17:02 PM 44.1333 -80.4500 313° West 210 242 12,400 900 Climbing Toronto Center
Fri 11:18:02 PM 44.1667 -80.5167 305° West 210 242 13,100 750 Climbing Toronto Center
Fri 11:19:02 PM 44.2167 -80.5833 316° Northwest 210 242 13,900 800 Climbing Toronto Center
Fri 11:20:02 PM 44.2500 -80.6333 313° West 220 253 14,700 800 Climbing Toronto Center
Fri 11:21:02 PM 44.2833 -80.7000 305° West 220 253 15,500 650 Climbing Toronto Center
Fri 11:22:02 PM 44.3333 -80.7667 316° Northwest 220 253 16,000 250 Climbing Toronto Center
Fri 11:23:02 PM 44.3833 -80.8167 324° Northwest 240 276 16,000  Level Toronto Center
Fri 11:24:02 PM 44.4000 -80.9167 283° West 250 288 16,000  Level Toronto Center
Fri 11:25:02 PM 44.4500 -80.9833 316° Northwest 260 299 16,000  Level Toronto Center
Fri 11:26:02 PM 44.5000 -81.0667 310° West 260 299 16,000  Level Toronto Center
Fri 11:27:02 PM 44.5500 -81.1500 310° West 260 299 16,000  Level Toronto Center
Fri 11:28:02 PM 44.6000 -81.2333 310° West 270 311 16,000  Level Toronto Center
Fri 11:29:02 PM 44.6500 -81.3000 317° Northwest 260 299 16,000  Level Toronto Center
Fri 11:30:02 PM 44.7000 -81.3667 317° Northwest 270 311 16,000  Level Toronto Center
Fri 11:31:02 PM 44.7500 -81.4667 305° West 270 311 16,000  Level Toronto Center
Fri 11:32:02 PM 44.8000 -81.5333 317° Northwest 270 311 16,000  Level Toronto Center
Fri 11:33:02 PM 44.8500 -81.6000 317° Northwest 260 299 16,000  Level Toronto Center
Fri 11:34:02 PM 44.9000 -81.7000 305° West 270 311 16,000  Level Toronto Center
Fri 11:35:02 PM 44.9500 -81.7833 310° West 270 311 16,000  Level Toronto Center
Fri 11:36:02 PM 45.0000 -81.8500 317° Northwest 260 299 16,000  Level Toronto Center
Fri 11:37:02 PM 45.0500 -81.9167 317° Northwest 270 311 16,000  Level Toronto Center
Fri 11:38:02 PM 45.0833 -82.0167 295° West 270 311 16,000 -33 Level Toronto Center
Fri 11:40:02 PM 45.1833 -82.1667 313° West 270 311 15,900 -33 Descending Toronto Center
Fri 11:41:02 PM 45.2333 -82.2667 305° West 260 299 15,900  Level Toronto Center
Fri 11:42:02 PM 45.2833 -82.3333 317° Northwest 270 311 15,900  Level Toronto Center
Fri 11:43:02 PM 45.3167 -82.4000 305° West 260 299 15,900  Level Toronto Center
Fri 11:44:02 PM 45.3667 -82.4833 311° West 270 311 15,900 50 Level Toronto Center
Fri 11:45:02 PM 45.4167 -82.5833 305° West 260 299 16,000 50 Climbing Toronto Center
Fri 11:46:02 PM 45.4667 -82.6500 317° Northwest 260 299 16,000  Level Toronto Center
Fri 11:47:02 PM 45.5000 -82.7333 300° West 270 311 16,000  Level Toronto Center
Fri 11:48:02 PM 45.5500 -82.8000 317° Northwest 270 311 16,000  Level Toronto Center
Fri 11:49:02 PM 45.6000 -82.9000 306° West 270 311 16,000  Level Toronto Center
Fri 11:50:02 PM 45.6500 -82.9667 317° Northwest 270 311 16,000  Level Toronto Center
Fri 11:51:02 PM 45.7000 -83.0500 311° West 260 299 16,000  Level Toronto Center
Fri 11:52:02 PM 45.7500 -83.1167 317° Northwest 260 299 16,000  Level Toronto Center
Fri 11:53:02 PM 45.8000 -83.2167 306° West 260 299 16,000 -400 Level Toronto Center
Fri 11:54:02 PM 45.8333 -83.3000 300° West 270 311 15,200 -850 Descending Toronto Center
Fri 11:55:02 PM 45.9000 -83.4000 314° West 290 334 14,300 -1,000 Descending Toronto Center
Fri 11:56:02 PM 45.9500 -83.4667 317° Northwest 300 345 13,200 -1,033 Descending Toronto Center
Fri 11:58:02 PM 46.0667 -83.6500 313° West 300 345 11,200 -1,000 Descending Toronto Center
Fri 11:59:02 PM 46.1167 -83.7500 306° West 290 334 10,200 -950 Descending Toronto Center
Sat 12:00:02 AM 46.1500 -83.8167 306° West 280 322 9,300 -950 Descending Toronto Center
Sat 12:01:02 AM 46.2000 -83.9167 306° West 270 311 8,300 -950 Descending Toronto Center
Sat 12:02:02 AM 46.2500 -84.0000 311° West 270 311 7,400 -900 Descending Toronto Center
Sat 12:03:02 AM 46.3000 -84.1000 306° West 270 311 6,500 -900 Descending Toronto Center
Sat 12:04:02 AM 46.3500 -84.1667 317° Northwest 260 299 5,600 -1,050 Descending Toronto Center
Sat 12:05:02 AM 46.3667 -84.2500 286° West 250 288 4,400 -1,250 Descending Toronto Center
Sat 12:06:02 AM 46.4000 -84.3167 306° West 230 265 3,100 -1,150 Descending Toronto Center
Sat 12:07:02 AM 46.4333 -84.4000 300° West 200 230 2,100 -950 Descending Toronto Center
Sat 12:08:02 AM 46.4667 -84.4667 306° West 170 196 1,200 -900 Descending Toronto Center

Login

Don't have an account? Register now (free) for customized features, flight alerts, and more!